Station: Macquarie Island  

  Atmospheric Gas Attenuation - ITU Rec 676-11   ----------------- dB/100km -----------------
Date Time Temp RH % AH g/m3 Dew Point Wind Direction Speed kph Gust kph Barometer mB Rainfall Since 9am 24GHz 47GHz 76GHz 122GHz 134GHz 241GHz
02/09 01:40 4.5 92 6.05 3.3 26 33 980.1 10 14.5 23.1 32.3 85.0 72.5 246.8
02/09 01:30 4.6 92 6.09 3.4 33 41 980.2 10 14.6 23.1 32.5 85.3 72.9 248.4
02/09 01:20 4.5 92 6.05 3.3 32 39 980.1 10 14.5 23.1 32.3 85.0 72.5 246.8
02/09 01:10 4.5 92 6.05 3.3 32 39 980.1 10 14.5 23.1 32.3 85.0 72.5 246.8
02/09 01:00 4.5 92 6.05 3.3 33 39 980 10 14.5 23.1 32.3 85.0 72.4 246.8
02/09 00:50 4.5 93 6.12 3.5 35 41 980.1 10 14.7 23.2 32.6 85.7 73.4 250.1
02/09 00:40 4.6 93 6.16 3.6 37 41 980 10 14.7 23.2 32.7 86.1 73.8 251.6
02/09 00:30 4.6 94 6.22 3.7 37 43 979.9 10 14.9 23.3 33.0 86.7 74.6 254.4
02/09 00:20 4.6 95 6.29 3.9 37 43 979.8 10 15.0 23.4 33.3 87.4 75.5 257.6
02/09 00:10 4.6 96 6.36 4 33 41 979.7 10 15.2 23.5 33.5 88.2 76.5 260.9
02/09 00:00 4.7 96 6.4 4.1 30 39 979.7 10 15.3 23.6 33.7 88.5 76.9 262.4
01/09 23:50 4.8 97 6.51 4.4 30 35 979.6 10 15.5 23.7 34.1 89.6 78.3 267.2
01/09 23:40 4.9 97 6.55 4.5 32 41 979.5 10 15.6 23.8 34.2 89.9 78.7 268.7
01/09 23:30 5 97 6.6 4.6 33 41 979.5 10 15.7 23.8 34.3 90.3 79.3 270.8
01/09 23:20 5.1 97 6.64 4.7 35 43 979.5 10 15.8 23.9 34.5 90.6 79.7 272.3
01/09 23:10 5.2 97 6.68 4.8 35 41 979.4 10 15.8 23.9 34.6 90.9 80.1 273.8
01/09 23:00 5.4 97 6.77 5 37 43 979.2 10 16.0 24.0 34.8 91.7 81.1 277.3
01/09 22:50 5.5 97 6.82 5.1 33 41 979.2 10 16.1 24.0 35.0 92.1 81.7 279.3
01/09 22:40 5.5 97 6.82 5.1 33 43 979.2 9.8 16.1 24.0 35.0 92.1 81.7 279.3
01/09 22:30 5.5 97 6.82 5.1 39 44 979.2 9.8 16.1 24.0 35.0 92.1 81.7 279.3
01/09 22:20 5.4 97 6.77 5 39 44 979.3 9.6 16.0 24.0 34.9 91.7 81.1 277.3
01/09 22:10 5.4 97 6.77 5 41 46 979.4 9.6 16.0 24.0 34.9 91.7 81.1 277.3
01/09 22:00 5.5 97 6.82 5.1 43 46 979.5 9.4 16.1 24.1 35.0 92.1 81.7 279.4
01/09 21:50 5.5 97 6.82 5.1 41 48 979.5 9.4 16.1 24.1 35.0 92.1 81.7 279.4
01/09 21:40 5.5 97 6.82 5.1 43 48 979.6 9.2 16.1 24.1 35.0 92.1 81.7 279.4
01/09 21:30 5.5 97 6.82 5.1 43 50 979.7 9 16.1 24.1 35.0 92.2 81.7 279.4
01/09 21:20 5.6 98 6.93 5.3 43 52 979.8 9 16.4 24.2 35.4 93.3 83.1 284.3
01/09 21:10 5.5 98 6.89 5.2 43 46 979.9 8.8 16.3 24.2 35.3 92.9 82.7 282.8
01/09 21:00 5.5 97 6.82 5.1 44 48 980 8.6 16.1 24.1 35.0 92.2 81.7 279.5
01/09 20:50 5.4 97 6.77 5 44 50 980.1 8.6 16.0 24.0 34.9 91.8 81.2 277.5
01/09 20:40 5.4 97 6.77 5 44 48 980.3 8.4 16.0 24.0 34.9 91.8 81.2 277.6
01/09 20:30 5.4 97 6.77 5 46 52 980.4 8.4 16.0 24.0 34.9 91.8 81.2 277.6
01/09 20:20 5.5 98 6.89 5.2 46 54 980.5 8.4 16.3 24.2 35.4 93.0 82.7 282.9
01/09 20:10 5.4 97 6.77 5 44 52 980.6 8.2 16.0 24.0 34.9 91.8 81.2 277.6
01/09 20:00 5.4 97 6.77 5 44 52 980.8 8 16.0 24.0 34.9 91.8 81.2 277.7
01/09 19:50 5.4 97 6.77 5 46 54 981 7.8 16.0 24.1 34.9 91.9 81.2 277.7
01/09 19:40 5.4 97 6.77 5 46 54 981 7.8 16.0 24.1 34.9 91.9 81.2 277.7
01/09 19:30 5.5 97 6.82 5.1 46 54 981.3 7.6 16.1 24.1 35.1 92.3 81.8 279.8
01/09 19:20 5.6 98 6.93 5.3 46 52 981.5 7.2 16.4 24.3 35.5 93.4 83.2 284.7
01/09 19:10 5.5 97 6.82 5.1 46 50 981.7 7.2 16.1 24.1 35.1 92.4 81.9 279.9
01/09 19:00 5.6 97 6.86 5.2 46 52 981.9 6.8 16.2 24.2 35.2 92.7 82.3 281.5
01/09 18:50 5.6 98 6.93 5.3 44 52 982.2 6.6 16.4 24.3 35.5 93.5 83.3 284.9
01/09 18:40 5.5 98 6.89 5.2 43 48 982.5 6.4 16.3 24.3 35.4 93.2 82.9 283.4
01/09 18:30 5.4 98 6.84 5.1 41 46 982.8 6.2 16.2 24.2 35.3 92.8 82.3 281.5
01/09 18:20 5.4 98 6.84 5.1 41 46 983 6.2 16.2 24.2 35.3 92.8 82.3 281.5
01/09 18:10 5.4 98 6.84 5.1 41 46 983.3 6.2 16.2 24.3 35.3 92.9 82.4 281.6
01/09 18:00 5.4 98 6.84 5.1 41 46 983.6 6 16.2 24.3 35.3 92.9 82.4 281.7
01/09 17:50 5.3 98 6.8 5 41 46 983.8 6 16.1 24.2 35.2 92.6 82.0 280.2
01/09 17:40 5.3 98 6.8 5 41 46 984 6 16.1 24.2 35.2 92.6 82.0 280.2
01/09 17:30 5.2 98 6.75 4.9 39 44 984.2 6 16.0 24.2 35.1 92.2 81.4 278.3
01/09 17:20 5.2 98 6.75 4.9 39 44 984.4 6 16.0 24.2 35.1 92.2 81.4 278.3
01/09 17:10 5.1 97 6.64 4.7 39 44 984.6 6 15.8 24.1 34.7 91.1 80.1 273.5
01/09 17:00 5.1 98 6.71 4.8 39 44 984.9 6 15.9 24.2 35.0 91.9 81.0 276.9
01/09 16:50 5 97 6.6 4.6 37 41 985.2 6 15.7 24.0 34.6 90.9 79.7 272.1
01/09 16:40 5 97 6.6 4.6 37 41 985.4 6 15.7 24.1 34.6 90.9 79.7 272.1
01/09 16:30 5.1 97 6.64 4.7 37 43 985.7 6 15.8 24.1 34.7 91.3 80.1 273.8
01/09 16:20 5 97 6.6 4.6 39 43 985.9 6 15.7 24.1 34.6 91.0 79.7 272.3
01/09 16:10 5 97 6.6 4.6 39 44 986.1 6 15.7 24.1 34.6 91.0 79.7 272.3
01/09 16:00 5.1 97 6.64 4.7 41 46 986.3 6 15.8 24.1 34.8 91.3 80.2 273.9
01/09 15:50 4.8 97 6.51 4.4 35 39 986.6 6 15.5 24.0 34.4 90.3 78.8 268.8
01/09 15:40 4.7 96 6.4 4.1 35 43 986.9 5.8 15.3 23.9 34.0 89.2 77.4 264.1
01/09 15:30 4.7 96 6.4 4.1 33 41 987.1 5.8 15.3 23.9 34.0 89.2 77.4 264.1
01/09 15:20 4.9 96 6.48 4.3 35 48 987.2 5.4 15.4 23.9 34.2 89.9 78.3 267.2
01/09 15:10 4.9 96 6.48 4.3 35 46 987.1 4.8 15.4 23.9 34.2 89.9 78.3 267.2
01/09 15:00 4.7 96 6.4 4.1 37 46 987.9 4.4 15.3 23.9 34.0 89.3 77.5 264.3
01/09 14:50 4.6 96 6.36 4 32 43 987.9 4 15.2 23.9 33.9 89.0 77.0 262.7
01/09 14:40 4.5 96 6.32 3.9 35 46 988.3 3.8 15.1 23.8 33.8 88.7 76.6 261.3
01/09 14:30 4.4 96 6.27 3.8 33 44 988.6 3.8 15.0 23.8 33.6 88.3 76.1 259.3
01/09 14:20 4.2 95 6.13 3.5 30 46 988.9 3.6 14.7 23.6 33.2 87.0 74.4 253.4
01/09 14:10 4 95 6.05 3.3 32 48 989.1 3.6 14.5 23.6 32.9 86.4 73.5 250.4
01/09 14:00 3.9 95 6 3.2 32 50 989.3 3.4 14.4 23.5 32.8 86.0 73.0 248.4
01/09 13:50 3.6 95 5.89 2.9 28 48 989.7 3.2 14.2 23.4 32.5 85.2 71.8 244.2
01/09 13:40 3.4 94 5.75 2.5 28 44 990 3 13.9 23.3 32.0 83.9 70.1 238.3
01/09 13:30 3 94 5.59 2.1 24 43 990.3 3 13.6 23.1 31.5 82.6 68.4 232.1
01/09 13:20 2.7 93 5.42 1.7 26 46 990.7 3 13.2 22.9 31.0 81.1 66.4 225.1
01/09 13:10 2.5 93 5.35 1.5 26 41 990.9 2.6 13.1 22.9 30.8 80.6 65.6 222.5
01/09 13:00 2.3 93 5.28 1.3 24 39 991.1 2.6 12.9 22.8 30.6 80.1 64.9 219.8
01/09 12:50 2.1 93 5.21 1.1 26 43 991.4 2.6 12.8 22.8 30.4 79.6 64.1 217.1
01/09 12:40 1.9 93 5.14 0.9 24 39 991.6 2.6 12.6 22.7 30.2 79.0 63.4 214.5
01/09 12:30 1.8 93 5.1 0.8 17 32 992 2.6 12.5 22.7 30.1 78.7 63.0 213.0
01/09 12:20 1.6 93 5.03 0.6 13 26 992.1 2.6 12.4 22.6 29.9 78.2 62.2 210.2
01/09 12:10 1.8 93 5.1 0.8 19 32 992.4 2.4 12.5 22.7 30.1 78.8 63.0 213.0
01/09 12:00 1.6 92 4.98 0.4 19 30 992.8 2.4 12.3 22.6 29.7 77.7 61.6 208.0
01/09 11:50 1.7 93 5.07 0.7 19 30 993.1 2.2 12.5 22.7 30.0 78.6 62.7 212.0
01/09 11:40 1.5 93 5 0.5 13 26 993.3 2.2 12.3 22.7 29.8 78.1 61.9 209.3
01/09 11:30 1.4 93 4.97 0.4 11 20 993.5 2.2 12.3 22.6 29.8 77.9 61.6 208.2
01/09 11:20 1.4 93 4.97 0.4 11 17 993.7 2 12.3 22.6 29.8 77.9 61.7 208.3
01/09 11:10 1.3 92 4.88 0.1 11 20 994 2 12.1 22.5 29.5 77.1 60.6 204.4
01/09 11:00 1.2 92 4.85 0 11 20 994.3 2 12.0 22.5 29.4 76.9 60.2 203.3
01/09 10:50 1.2 92 4.85 0 9 19 994.6 1.8 12.0 22.5 29.4 76.9 60.3 203.4
01/09 10:40 1.1 92 4.81 -0.1 9 15 994.9 1.8 11.9 22.5 29.3 76.6 59.8 201.8
01/09 10:30 1 91 4.73 -0.3 7 17 995 1.6 11.8 22.4 29.0 75.8 58.9 198.4
01/09 10:20 1 91 4.73 -0.3 6 15 995.1 1.4 11.8 22.4 29.0 75.8 58.9 198.4
01/09 10:10 1 90 4.68 -0.5 6 13 995.4 1.2 11.7 22.3 28.8 75.3 58.2 196.1
01/09 10:00 0.9 90 4.65 -0.5 9 15 995.6 1 11.6 22.3 28.8 75.1 57.9 195.0
01/09 09:50 1 89 4.63 -0.6 7 13 996 0.8 11.5 22.3 28.7 74.9 57.6 193.9
01/09 09:40 1.1 88 4.6 -0.7 7 13 996.2 0.6 11.5 22.2 28.5 74.5 57.1 192.3
01/09 09:30 1.2 88 4.64 -0.6 6 9 996.3 0.2 11.6 22.3 28.6 74.8 57.6 193.9
01/09 09:20 1.1 87 4.55 -0.8 7 13 996.3 0 11.4 22.1 28.3 73.9 56.5 190.0
01/09 09:10 1.2 87 4.58 -0.7 7 13 996.4 0 11.4 22.2 28.4 74.2 56.8 191.2

Last Refresh: 02-Sep-2026 01:24:07

Bureau of Meteorology